Thursday, November 27, 2014
04:24 UTC
  |  Log In   |  Register Free
Airport Search:

Henry Post Aaf (Fort Sill) Airport
(KFSI)

Henry Post Aaf (Fort Sill) Airport Diagram
No Airport Diagram Available

FAA data valid effective November 13, 2014 - January 08, 2015 (unless otherwise noted).

 
 
 
 
 
 
 
 
 
 
 
 
 
 

Current Aviation Weather for Henry Post Aaf (Fort Sill) Airport (KFSI)

The most recent METAR observation for KFSI was updated at: 0225
METAR Summary (Translated METAR)
KFSI
270158Z AUTO 35005KT 10SM CLR 06/M03 A3035 RMK AO2 SLP281 T00551026
KLAW
270153Z AUTO 01007KT 10SM CLR 08/M02 A3036 RMK AO2 SLP284 T00781022
(5.0 nm SW from KFSI)
KDUC
270155Z AUTO 01009KT 10SM CLR 08/M01 A3035 RMK AO2
(24.4 nm SE from KFSI)
TAF Summary (Translated TAF)
KFSI
2623/2804 34012G18KT 9999 SKC QNH3021INS BECMG 2623/2624 VRB06KT 9999 SKC QNH3024INS BECMG 2717/2718 19012G18KT 9999 SKC QNH3026INS TX15/2722Z TN01/2711Z AMD 262308
KLAW
(5.0 nm SW from KFSI)
261720Z 2618/2718 35014G21KT P6SM SKC FM262200 01006KT P6SM SKC FM271500 16005KT P6SM SKC
  Airport Weather Conditions for KFSI

 Current Weather at FSI
42° F
Fair
North winds at 9.2 mph
FSI NOAA Radar

Pressure: 30.37 in
Humidity: 55%
Wind: North at 9.2 MPH (8 KT)
Dew Point: 26.4°F
Visibility: 10.00 mi


Airport Weather Forecast for KFSI

Translated METAR and TAF for KFSI
Translated METAR for KFSI (0419 UTC 27 November 2014)
found at http://aviationweather.gov/adds/metars/
 
METAR text: KFSI 270358Z AUTO 36005KT 10SM CLR 05/M04 A3041 RMK AO2 SLP300 T00471038
Conditions at: KFSI (FORT SILL , OK, US) observed 0358 UTC 27 November 2014
Temperature: 4.7°C (40°F)
Dewpoint: -3.8°C (25°F) [RH = 54%]
Pressure (altimeter): 30.41 inches Hg (1029.9 mb)
[Sea-level pressure: 1030.0 mb]
Winds: from the N (360 degrees) at 6 MPH (5 knots; 2.6 m/s)
Visibility: 10 or more miles (16+ km)
Ceiling: at least 12,000 feet AGL
Clouds: sky clear below 12,000 feet AGL
Weather: automated observation with no human augmentation;
there may or may not be significant weather present at this time
Translated TAF for KFSI
Forecast for: KFSI (FORT SILL , OK, US)
TAF Text: TAF AMD KFSI 2704/2804 VRB06KT 9999 SKC QNH3024INS
Forecast period: 0400 to 1700 UTC 27 November 2014
Forecast type: FROM: standard forecast or significant change
Winds: variable direction winds at 7 MPH (6 knots; 3.1 m/s)
Visibility: 6 or more miles (10+ km)
Clouds: clear skies
Weather: no significant weather forecast for this period
TAF Text: BECMG 2717/2718 19012G18KT 9999 SKC QNH3026INS TX13/2722Z TN01/2711Z AMD 270400 LAST NO AMDS AFT 2704 NEXT 2814
Forecast period: 1700 UTC 27 November 2014 to 0400 UTC 28 November 2014
Forecast type: BECOMING: Conditions expected to become as follows by 1800 UTC 27 November 2014
Winds: from the S (190 degrees) at 14 MPH (12 knots; 6.2 m/s)
gusting to 21 MPH (18 knots; 9.4 m/s)
Visibility: 6 or more miles (10+ km)
Clouds: clear skies
Weather: no significant weather forecast for this period

Find All Airport Services Find A Hotel Find A Rental Car Find A Golf Course Find A Restaurant $100 Hamburger



FBO's on the Field
FBO Company Facility Photos Services Transportation Aviation Fuel Prices: Prices include tax
Catering Weather Repair Courtesy Rental Type 100LL JetA JetA+ MOGAS 8087
 
Add another FBO Facility Photos Catering Weather Repair Courtesy Rental Type 100LL JetA JetA+ MOGAS 8087
Services Transportation Aviation Fuel Prices: Prices include tax
There are no FBO's currently reporting fuel at FSI. List your FBO now


model-print
model-print
model-print
model-print